createdAt,value
2022-11-17T00:00:28.569Z,99381.44
2022-11-17T00:02:56.377Z,99378.41
2022-11-17T00:05:24.169Z,99375.59
2022-11-17T00:07:54.418Z,99372.81
2022-11-17T00:10:21.963Z,99376.50
2022-11-17T00:13:07.981Z,99378.91
2022-11-17T00:15:36.098Z,99378.00
2022-11-17T00:18:22.550Z,99374.22
2022-11-17T00:21:08.743Z,99369.63
2022-11-17T00:23:48.646Z,99369.31
2022-11-17T00:26:17.168Z,99371.19
2022-11-17T00:28:44.965Z,99376.50
2022-11-17T00:31:31.842Z,99363.81
2022-11-17T00:34:05.470Z,99376.53
2022-11-17T00:36:34.945Z,99374.03
2022-11-17T00:39:02.481Z,99374.59
2022-11-17T00:41:31.529Z,99364.13
2022-11-17T00:43:59.307Z,99358.28
2022-11-17T00:46:26.783Z,99356.88
2022-11-17T00:48:54.403Z,99351.94
2022-11-17T00:51:21.990Z,99359.72
2022-11-17T00:53:49.638Z,99357.44
2022-11-17T00:56:17.685Z,99358.72
2022-11-17T00:58:45.469Z,99356.53
2022-11-17T01:01:13.112Z,99357.91
2022-11-17T01:03:41.036Z,99351.91
2022-11-17T01:06:12.131Z,99357.47
2022-11-17T01:08:41.456Z,99347.78
2022-11-17T01:11:10.434Z,99345.88
2022-11-17T01:13:38.649Z,99350.09
2022-11-17T01:16:07.498Z,99350.38
2022-11-17T01:18:35.488Z,99348.94
2022-11-17T01:21:03.795Z,99355.94
2022-11-17T01:23:32.929Z,99350.13
2022-11-17T01:26:04.357Z,99347.09
2022-11-17T01:28:33.029Z,99347.88
2022-11-17T01:31:04.689Z,99350.78
2022-11-17T01:33:32.988Z,99346.09
2022-11-17T01:36:01.963Z,99345.50
2022-11-17T01:38:30.222Z,99347.47
2022-11-17T01:40:58.593Z,99339.75
2022-11-17T01:43:39.046Z,99334.44
2022-11-17T01:46:07.163Z,99333.06
2022-11-17T01:48:35.010Z,99334.78
2022-11-17T01:51:04.650Z,99330.31
2022-11-17T01:53:35.146Z,99326.75
2022-11-17T01:56:03.820Z,99326.16
2022-11-17T01:58:32.911Z,99327.19
2022-11-17T02:01:00.456Z,99325.91
2022-11-17T02:03:27.813Z,99316.50
2022-11-17T02:06:04.910Z,99322.81
2022-11-17T02:08:32.425Z,99320.91
2022-11-17T02:11:00.760Z,99319.88
2022-11-17T02:13:28.191Z,99321.75
2022-11-17T02:15:55.721Z,99319.59
2022-11-17T02:18:23.007Z,99302.44
2022-11-17T02:20:51.349Z,99293.81
2022-11-17T02:23:18.840Z,99292.66
2022-11-17T02:26:04.613Z,99298.81
2022-11-17T02:28:32.848Z,99289.94
2022-11-17T02:31:34.921Z,99285.81
2022-11-17T02:34:05.064Z,99284.16
2022-11-17T02:36:39.821Z,99281.16
2022-11-17T02:39:36.409Z,99281.44
2022-11-17T02:42:54.955Z,99282.06
2022-11-17T02:45:23.635Z,99284.81
2022-11-17T02:47:51.001Z,99280.13
2022-11-17T02:50:18.589Z,99275.38
2022-11-17T02:52:46.064Z,99276.22
2022-11-17T02:55:13.501Z,99278.47
2022-11-17T02:57:41.236Z,99272.44
2022-11-17T03:00:15.767Z,99277.09
2022-11-17T03:02:46.826Z,99278.75
2022-11-17T03:05:19.409Z,99277.13
2022-11-17T03:08:06.172Z,99275.75
2022-11-17T03:10:38.255Z,99271.06
2022-11-17T03:13:18.068Z,99270.53
2022-11-17T03:15:46.357Z,99273.84
2022-11-17T03:18:29.552Z,99270.78
2022-11-17T03:20:56.832Z,99272.16
2022-11-17T03:23:43.676Z,99265.25
2022-11-17T03:26:12.428Z,99268.84
2022-11-17T03:28:41.170Z,99272.72
2022-11-17T03:31:09.606Z,99258.91
2022-11-17T03:33:37.987Z,99266.06
2022-11-17T03:36:13.213Z,99262.72
2022-11-17T03:38:50.211Z,99268.81
2022-11-17T03:41:17.645Z,99268.31
2022-11-17T03:43:45.224Z,99268.31
2022-11-17T03:46:13.766Z,99269.63
2022-11-17T03:48:43.151Z,99276.03
2022-11-17T03:51:39.874Z,99284.59
2022-11-17T03:54:07.305Z,99289.22
2022-11-17T03:56:47.213Z,99287.25
2022-11-17T03:59:17.455Z,99293.13
2022-11-17T04:01:44.922Z,99283.50
2022-11-17T04:04:16.118Z,99287.03
2022-11-17T04:06:43.763Z,99284.56
2022-11-17T04:09:11.966Z,99282.06
2022-11-17T04:11:58.514Z,99281.56
2022-11-17T04:14:57.877Z,99285.41
2022-11-17T04:17:25.420Z,99278.75
2022-11-17T04:19:53.180Z,99281.31
2022-11-17T04:22:20.622Z,99291.25
2022-11-17T04:24:48.084Z,99279.41
2022-11-17T04:27:34.003Z,99279.63
2022-11-17T04:30:01.562Z,99274.41
2022-11-17T04:32:29.214Z,99277.97
2022-11-17T04:34:56.691Z,99283.78
2022-11-17T04:37:24.244Z,99282.13
2022-11-17T04:39:51.760Z,99281.31
2022-11-17T04:42:19.255Z,99277.47
2022-11-17T04:44:46.790Z,99275.78
2022-11-17T04:47:14.471Z,99275.53
2022-11-17T08:37:46.899Z,99299.47
2022-11-17T08:40:14.483Z,99290.38
2022-11-17T08:42:42.167Z,99297.00
2022-11-17T08:45:10.765Z,99290.94
2022-11-17T08:47:38.404Z,99299.75
2022-11-17T08:50:06.422Z,99303.25
2022-11-17T08:52:33.849Z,99306.69
2022-11-17T08:59:09.478Z,99312.72
2022-11-17T09:01:37.793Z,99317.09
2022-11-17T09:04:05.973Z,99312.38
2022-11-17T09:06:33.419Z,99309.59
2022-11-17T09:09:02.095Z,99306.38
2022-11-17T09:11:29.800Z,99306.06
2022-11-17T09:13:57.409Z,99302.44
2022-11-17T09:16:25.445Z,99302.94
2022-11-17T09:18:57.134Z,99298.53
2022-11-17T09:21:26.262Z,99302.38
2022-11-17T09:23:54.327Z,99301.22
2022-11-17T09:26:22.283Z,99303.19
2022-11-17T09:28:50.204Z,99308.94
2022-11-17T09:31:19.151Z,99298.19
2022-11-17T09:33:47.068Z,99299.47
2022-11-17T09:36:14.856Z,99291.84
2022-11-17T09:38:42.311Z,99298.13
2022-11-17T09:41:11.228Z,99301.19
2022-11-17T09:43:39.685Z,99307.88
2022-11-17T09:46:17.527Z,99307.88
2022-11-17T09:48:47.868Z,99303.25
2022-11-17T09:51:16.072Z,99308.09
2022-11-17T09:53:45.379Z,99310.88
2022-11-17T09:56:12.843Z,99302.84
2022-11-17T09:58:46.610Z,99309.63
2022-11-17T10:01:15.232Z,99316.56
2022-11-17T10:03:46.167Z,99319.59
2022-11-17T10:06:15.247Z,99320.03
2022-11-17T10:11:52.416Z,99328.63
2022-11-17T10:14:21.951Z,99314.13
2022-11-17T10:16:57.928Z,99314.69
2022-11-17T10:19:25.594Z,99330.69
2022-11-17T10:21:58.372Z,99316.06
2022-11-17T10:24:35.007Z,99320.41
2022-11-17T10:27:03.547Z,99322.25
2022-11-17T10:29:31.375Z,99339.16
2022-11-17T10:32:00.786Z,99324.47
2022-11-17T10:34:38.787Z,99317.84
2022-11-17T10:37:18.438Z,99326.16
2022-11-17T10:39:46.089Z,99326.19
2022-11-17T10:42:24.812Z,99326.50
2022-11-17T10:44:53.908Z,99331.34
2022-11-17T10:47:32.010Z,99325.47
2022-11-17T10:50:06.764Z,99330.41
2022-11-17T10:52:36.159Z,99316.69
2022-11-17T10:55:19.484Z,99309.34
2022-11-17T10:57:48.351Z,99305.72
2022-11-17T11:00:22.833Z,99315.38
2022-11-17T11:02:50.202Z,99328.78
2022-11-17T11:05:18.844Z,99332.84
2022-11-17T11:07:46.747Z,99332.19
2022-11-17T11:10:24.283Z,99337.38
2022-11-17T11:13:12.286Z,99342.97
2022-11-17T11:15:41.287Z,99347.09
2022-11-17T11:18:53.703Z,99338.69
2022-11-17T11:21:31.042Z,99324.25
2022-11-17T11:24:08.455Z,99326.53
2022-11-17T11:26:45.183Z,99325.63
2022-11-17T11:29:16.196Z,99340.69
2022-11-17T11:31:53.272Z,99339.59
2022-11-17T11:34:27.604Z,99345.53
2022-11-17T11:36:56.995Z,99336.28
2022-11-17T11:39:47.955Z,99348.50
2022-11-17T11:42:29.432Z,99348.00
2022-11-17T11:45:15.702Z,99340.50
2022-11-17T11:47:43.579Z,99340.91
2022-11-17T11:50:30.258Z,99346.16
2022-11-17T11:53:11.687Z,99343.63
2022-11-17T11:55:47.215Z,99346.16
2022-11-17T11:58:21.511Z,99353.56
2022-11-17T12:00:50.652Z,99364.72
2022-11-17T12:03:18.187Z,99352.41
2022-11-17T12:06:27.998Z,99368.28
2022-11-17T12:09:04.388Z,99348.53
2022-11-17T12:11:51.290Z,99356.13
2022-11-17T12:14:20.325Z,99351.53
2022-11-17T12:16:48.552Z,99349.84
2022-11-17T12:19:42.808Z,99354.78
2022-11-17T12:22:20.991Z,99338.44
2022-11-17T12:24:48.664Z,99330.72
2022-11-17T12:27:47.609Z,99337.22
2022-11-17T12:30:33.642Z,99346.19
2022-11-17T12:33:01.666Z,99347.72
2022-11-17T12:35:29.991Z,99363.81
2022-11-17T12:38:13.083Z,99370.41
2022-11-17T12:40:41.644Z,99362.50
2022-11-17T12:43:15.271Z,99364.84
2022-11-17T12:45:58.234Z,99370.59
2022-11-17T12:48:33.891Z,99365.06
2022-11-17T12:51:11.027Z,99367.84
2022-11-17T12:53:38.709Z,99371.03
2022-11-17T12:56:21.230Z,99378.06
2022-11-17T12:58:49.024Z,99384.22
2022-11-17T13:01:19.012Z,99370.75
2022-11-17T13:03:49.688Z,99364.94
2022-11-17T13:06:35.071Z,99360.41
2022-11-17T13:09:07.501Z,99358.88
2022-11-17T13:11:35.408Z,99353.94
2022-11-17T13:14:10.546Z,99351.19
2022-11-17T13:16:43.906Z,99356.88
2022-11-17T13:19:30.282Z,99344.75
2022-11-17T13:22:00.152Z,99352.59
2022-11-17T13:24:32.253Z,99352.31
2022-11-17T13:27:00.429Z,99351.09
2022-11-17T13:29:28.025Z,99354.53
2022-11-17T13:32:05.843Z,99350.91
2022-11-17T13:34:33.400Z,99342.25
2022-11-17T13:37:00.884Z,99338.56
2022-11-17T13:39:30.688Z,99337.56
2022-11-17T13:42:00.136Z,99328.13
2022-11-17T13:44:27.704Z,99333.03
2022-11-17T13:46:56.281Z,99318.06
2022-11-17T13:49:31.717Z,99315.78
2022-11-17T13:51:59.379Z,99301.91
2022-11-17T13:54:26.980Z,99300.63
2022-11-17T13:56:55.366Z,99303.47
2022-11-17T13:59:29.613Z,99298.63
2022-11-17T14:02:15.137Z,99306.53
2022-11-17T14:05:03.506Z,99307.13
2022-11-17T14:07:31.934Z,99308.16
2022-11-17T14:10:12.939Z,99300.56
2022-11-17T14:12:40.649Z,99289.78
2022-11-17T14:15:15.821Z,99285.63
2022-11-17T14:17:48.154Z,99282.81
2022-11-17T14:20:34.458Z,99286.81
2022-11-17T14:23:22.126Z,99294.09
2022-11-17T14:25:51.370Z,99294.75
2022-11-17T14:28:19.464Z,99292.66
2022-11-17T14:31:04.890Z,99278.66
2022-11-17T14:33:32.485Z,99287.34
2022-11-17T14:36:00.012Z,99283.50
2022-11-17T14:38:27.554Z,99284.91
2022-11-17T14:40:55.790Z,99284.16
2022-11-17T14:43:23.268Z,99276.34
2022-11-17T14:45:52.158Z,99270.28
2022-11-17T14:48:20.387Z,99264.34
2022-11-17T14:50:48.773Z,99267.47
2022-11-17T14:53:17.547Z,99261.34
2022-11-17T14:55:44.967Z,99254.41
2022-11-17T14:58:12.858Z,99257.16
2022-11-17T15:00:40.365Z,99246.47
2022-11-17T15:03:07.873Z,99251.91
2022-11-17T15:05:36.918Z,99242.31
2022-11-17T15:08:05.061Z,99245.94
2022-11-17T15:10:33.099Z,99245.94
2022-11-17T15:13:02.579Z,99242.31
2022-11-17T15:15:30.719Z,99246.31
2022-11-17T15:17:58.264Z,99237.34
2022-11-17T15:20:26.019Z,99250.41
2022-11-17T15:22:55.137Z,99238.25
2022-11-17T15:25:25.554Z,99234.69
2022-11-17T15:27:54.808Z,99233.16
2022-11-17T15:30:22.696Z,99225.00
2022-11-17T15:32:50.132Z,99224.84
2022-11-17T15:35:18.872Z,99221.81
2022-11-17T15:37:46.908Z,99223.59
2022-11-17T15:40:19.218Z,99224.69
2022-11-17T15:42:47.207Z,99218.75
2022-11-17T15:45:14.691Z,99215.50
2022-11-17T15:47:43.240Z,99215.16
2022-11-17T15:50:10.903Z,99220.44
2022-11-17T15:53:02.102Z,99211.44
2022-11-17T15:55:25.821Z,99210.38
2022-11-17T15:57:54.795Z,99213.00
2022-11-17T16:00:22.385Z,99215.16
2022-11-17T16:02:53.253Z,99206.50
2022-11-17T16:05:24.971Z,99209.09
2022-11-17T16:07:52.700Z,99217.22
2022-11-17T16:10:21.542Z,99202.00
2022-11-17T16:12:49.845Z,99193.94
2022-11-17T16:15:17.399Z,99181.81
2022-11-17T16:17:45.627Z,99189.69
2022-11-17T16:20:13.522Z,99182.56
2022-11-17T16:22:41.018Z,99186.50
2022-11-17T16:25:10.557Z,99181.28
2022-11-17T16:27:38.569Z,99180.72
2022-11-17T16:30:06.337Z,99168.03
2022-11-17T16:32:33.924Z,99171.06
2022-11-17T16:35:02.518Z,99177.69
2022-11-17T16:37:30.114Z,99180.63
2022-11-17T16:39:58.055Z,99171.69
2022-11-17T16:42:25.573Z,99170.69
2022-11-17T16:44:53.926Z,99160.31
2022-11-17T16:47:22.062Z,99154.16
2022-11-17T16:49:51.876Z,99157.28
2022-11-17T16:52:22.061Z,99154.47
2022-11-17T16:54:49.507Z,99147.41
2022-11-17T16:57:17.165Z,99149.25
2022-11-17T16:59:44.746Z,99141.41
2022-11-17T17:02:14.965Z,99145.16
2022-11-17T17:04:42.717Z,99136.75
2022-11-17T17:07:11.549Z,99141.25
2022-11-17T17:09:39.322Z,99133.38
2022-11-17T17:12:06.864Z,99137.69
2022-11-17T17:14:34.689Z,99132.56
2022-11-17T17:17:06.306Z,99135.56
2022-11-17T17:19:35.864Z,99125.84
2022-11-17T17:22:03.851Z,99129.56
2022-11-17T17:24:31.420Z,99131.13
2022-11-17T17:26:58.917Z,99131.25
2022-11-17T17:29:26.416Z,99124.47
2022-11-17T17:31:55.380Z,99114.06
2022-11-17T17:34:22.957Z,99115.75
2022-11-17T17:36:50.585Z,99106.09
2022-11-17T17:39:18.402Z,99112.31
2022-11-17T17:41:46.226Z,99104.03
2022-11-17T17:44:16.477Z,99105.56
2022-11-17T17:46:44.166Z,99092.94
2022-11-17T17:49:11.841Z,99090.53
2022-11-17T17:51:40.285Z,99087.84
2022-11-17T17:54:17.179Z,99081.16
2022-11-17T17:56:45.037Z,99080.91
2022-11-17T17:59:13.822Z,99077.78
2022-11-17T18:01:42.569Z,99073.28
2022-11-17T18:04:15.569Z,99068.78
2022-11-17T18:06:46.182Z,99058.00
2022-11-17T18:09:15.706Z,99059.16
2022-11-17T18:11:47.974Z,99062.13
2022-11-17T18:14:17.498Z,99066.72
2022-11-17T18:16:45.073Z,99059.47
2022-11-17T18:19:13.662Z,99061.34
2022-11-17T18:21:41.382Z,99062.28
2022-11-17T18:24:09.684Z,99054.88
2022-11-17T18:26:38.126Z,99052.69
2022-11-17T18:29:18.813Z,99041.16
2022-11-17T18:31:52.729Z,99041.63
2022-11-17T18:34:25.705Z,99045.41
2022-11-17T18:36:55.858Z,99044.06
2022-11-17T18:39:31.549Z,99038.59
2022-11-17T18:42:00.042Z,99030.38
2022-11-17T18:44:31.044Z,99032.84
2022-11-17T18:47:02.749Z,99019.00
2022-11-17T18:49:34.580Z,99016.56
2022-11-17T18:52:02.933Z,99013.88
2022-11-17T18:54:31.444Z,98999.50
2022-11-17T18:57:01.570Z,98993.28
2022-11-17T18:59:29.294Z,98985.06
2022-11-17T19:01:58.144Z,98985.53
2022-11-17T19:04:29.639Z,98981.44
2022-11-17T19:07:00.165Z,98978.19
2022-11-17T19:09:31.425Z,98975.47
2022-11-17T19:12:02.781Z,98975.16
2022-11-17T19:14:34.171Z,98972.09
2022-11-17T19:17:02.082Z,98964.78
2022-11-17T19:19:32.114Z,98953.13
2022-11-17T19:22:04.722Z,98959.22
2022-11-17T19:24:35.452Z,98947.94
2022-11-17T19:27:04.020Z,98951.81
2022-11-17T19:29:31.745Z,98934.84
2022-11-17T19:32:02.573Z,98932.25
2022-11-17T19:35:22.694Z,98925.75
2022-11-17T19:37:51.419Z,98928.53
2022-11-17T19:40:23.091Z,98916.44
2022-11-17T19:42:50.870Z,98907.53
2022-11-17T19:45:18.246Z,98909.50
2022-11-17T19:47:54.201Z,98907.88
2022-11-17T19:50:24.932Z,98914.94
2022-11-17T19:52:56.783Z,98926.34
2022-11-17T19:55:33.382Z,98920.00
2022-11-17T19:58:04.266Z,98925.03
2022-11-17T20:00:32.110Z,98923.44
2022-11-17T20:03:03.621Z,98919.16
2022-11-17T20:05:32.425Z,98913.09
2022-11-17T20:08:04.232Z,98903.22
2022-11-17T20:10:36.163Z,98902.66
2022-11-17T20:13:03.562Z,98896.00
2022-11-17T20:15:35.746Z,98895.25
2022-11-17T20:18:41.887Z,98895.25
2022-11-17T20:21:12.117Z,98898.25
2022-11-17T20:23:39.637Z,98894.50
2022-11-17T20:26:08.114Z,98890.91
2022-11-17T20:28:35.765Z,98889.44
2022-11-17T20:31:07.455Z,98892.09
2022-11-17T20:33:35.022Z,98892.59
2022-11-17T20:36:06.296Z,98896.88
2022-11-17T20:38:37.739Z,98910.19
2022-11-17T20:41:06.414Z,98902.56
2022-11-17T20:43:33.910Z,98910.00
2022-11-17T20:46:01.679Z,98910.59
2022-11-17T20:48:30.689Z,98909.63
2022-11-17T20:51:02.272Z,98906.56
2022-11-17T20:53:30.074Z,98908.69
2022-11-17T20:56:01.344Z,98901.06
2022-11-17T20:58:36.659Z,98900.00
2022-11-17T21:09:23.278Z,98896.44
2022-11-17T21:11:58.811Z,98898.56
2022-11-17T21:14:27.200Z,98900.97
2022-11-17T21:16:55.772Z,98893.59
2022-11-17T21:19:23.608Z,98903.69
2022-11-17T21:21:53.495Z,98908.47
2022-11-17T21:24:25.052Z,98913.94
2022-11-17T21:27:09.237Z,98918.66
2022-11-17T21:30:29.048Z,98912.00
2022-11-17T21:32:56.630Z,98903.09
2022-11-17T21:35:34.581Z,98909.63
2022-11-17T21:40:44.902Z,98908.19
2022-11-17T21:43:13.007Z,98898.50
2022-11-17T21:45:42.074Z,98906.06
2022-11-17T21:48:09.501Z,98907.22
2022-11-17T21:50:43.412Z,98918.06
2022-11-17T21:53:28.714Z,98916.88
2022-11-17T21:56:07.019Z,98917.38
2022-11-17T22:02:09.391Z,98892.63
2022-11-17T22:04:40.328Z,98882.78
2022-11-17T22:07:12.862Z,98884.09
2022-11-17T22:11:09.211Z,98894.97
2022-11-17T22:14:04.788Z,98901.31
2022-11-17T22:17:05.799Z,98893.56
2022-11-17T22:23:53.202Z,98900.34
2022-11-17T22:26:50.629Z,98888.97
2022-11-17T22:30:06.593Z,98891.22
2022-11-17T22:32:50.083Z,98914.75
2022-11-17T22:35:32.181Z,98908.72
2022-11-17T22:41:53.468Z,98924.09
2022-11-17T22:44:22.319Z,98926.00
2022-11-17T22:46:55.276Z,98912.28
2022-11-17T22:49:26.932Z,98910.50
2022-11-17T22:52:11.231Z,98911.97
2022-11-17T22:54:46.354Z,98922.06
2022-11-17T22:57:19.004Z,98945.75
2022-11-17T22:59:48.278Z,98953.94
2022-11-17T23:02:19.226Z,98946.31
2022-11-17T23:10:25.622Z,98929.34
2022-11-17T23:12:53.200Z,98930.25
2022-11-17T23:15:20.944Z,98956.47
2022-11-17T23:17:52.728Z,98954.75
2022-11-17T23:20:21.646Z,98961.97
2022-11-17T23:22:49.633Z,98965.63
2022-11-17T23:25:17.365Z,98974.13
2022-11-17T23:27:46.772Z,98975.72
2022-11-17T23:30:14.872Z,98965.88
2022-11-17T23:32:43.885Z,98967.88
2022-11-17T23:35:11.681Z,98967.31
2022-11-17T23:37:42.786Z,98972.47
2022-11-17T23:40:10.635Z,98974.28
2022-11-17T23:42:42.834Z,98975.50
2022-11-17T23:45:18.091Z,98996.34
2022-11-17T23:47:45.896Z,99005.19
2022-11-17T23:50:13.303Z,99007.94
2022-11-17T23:52:42.564Z,99010.06
2022-11-17T23:55:11.134Z,99019.88
2022-11-17T23:57:38.561Z,99040.94
